Kronborg, Nebraska
Current Conditions -  °F | °C
As of 10:15 PM on Tuesday 21 Oct 2014 (Local Time) from KAUH Reporting Station
Haze Haze  
Wind Chill: 59°   Ceiling: Unl
Heat Index: 59°   Visibility: 4mi
Dew Point: 40°   Wind: 9mph
Humidity: 49%   Direction: 140°SE
Pressure: 30"   Gusts: NA
Location:  41.0075°N, 98.0042°W
Report Text: KAUH 220315Z AUTO 14008KT 4SM HZ CLR 15/05 A3000 RMK AO2 T01510045
Loading
Personal Weather Stations






























Interactive Weather Map New forecast layout! Learn more

10-Day Weather Forecast

Advertisements
Track Severe Weather on mobile